Time;durP1;ratioP1;P1;durP2;ratioP2;P2;SDS_P1;SDS_P2;PMS_P1;PMS_P2;Temp;Humidity;BMP_temperature;BMP_pressure;BME280_temperature;BME280_humidity;BME280_pressure;Samples;Min_cycle;Max_cycle;Signal;HPM_P1;HPM_P2
2022/12/11 00:00:43;;;;;;;16.05;8.25;;;;;;;;;;5042179;28;20427;-81
2022/12/11 00:03:17;;;;;;;16.70;8.20;;;;;;;;;;5046735;28;20425;-82
2022/12/11 00:05:45;;;;;;;15.40;7.63;;;;;;;;;;5039975;28;20929;-83
2022/12/11 00:08:13;;;;;;;14.98;7.75;;;;;;;;;;5054084;28;20421;-82
2022/12/11 00:10:47;;;;;;;15.05;7.25;;;;;;;;;;5034089;28;20813;-83
2022/12/11 00:13:21;;;;;;;15.07;7.15;;;;;;;;;;5047960;28;20425;-81
2022/12/11 00:15:49;;;;;;;13.93;6.88;;;;;;;;;;5046522;28;20424;-81
2022/12/11 00:18:21;;;;;;;15.82;7.55;;;;;;;;;;5036906;28;20435;-82
2022/12/11 00:20:54;;;;;;;16.63;7.90;;;;;;;;;;5046419;28;20425;-82
2022/12/11 00:23:27;;;;;;;15.97;7.10;;;;;;;;;;5046215;28;20427;-81
2022/12/11 00:26:00;;;;;;;15.65;6.95;;;;;;;;;;5031084;28;20450;-82
2022/12/11 00:28:29;;;;;;;15.32;7.50;;;;;;;;;;5031052;28;20441;-83
2022/12/11 00:30:57;;;;;;;15.07;7.80;;;;;;;;;;5038831;28;20427;-82
2022/12/11 00:33:26;;;;;;;16.40;8.25;;;;;;;;;;5045435;28;20429;-81
2022/12/11 00:35:53;;;;;;;16.75;8.18;;;;;;;;;;5046245;28;20418;-81
2022/12/11 00:38:22;;;;;;;15.82;7.10;;;;;;;;;;5040786;28;20434;-82
2022/12/11 00:40:50;;;;;;;14.25;6.97;;;;;;;;;;5070879;28;20791;-82
2022/12/11 00:43:18;;;;;;;15.27;7.35;;;;;;;;;;5060375;28;20433;-82
2022/12/11 00:45:52;;;;;;;14.45;7.20;;;;;;;;;;5046793;28;20930;-82
2022/12/11 00:48:20;;;;;;;14.18;7.00;;;;;;;;;;5047504;28;20429;-81
2022/12/11 00:50:48;;;;;;;15.32;7.13;;;;;;;;;;5030548;28;20411;-82
2022/12/11 00:53:16;;;;;;;14.70;7.13;;;;;;;;;;5037494;28;20433;-82
2022/12/11 00:55:48;;;;;;;15.65;7.00;;;;;;;;;;5033922;28;21142;-82
2022/12/11 00:58:21;;;;;;;16.42;7.45;;;;;;;;;;5039567;28;20415;-84
2022/12/11 01:00:53;;;;;;;13.98;6.82;;;;;;;;;;5045314;28;20799;-82
2022/12/11 01:03:26;;;;;;;14.27;6.35;;;;;;;;;;5053335;28;20422;-81
2022/12/11 01:05:59;;;;;;;14.05;6.53;;;;;;;;;;5048820;28;20898;-81
2022/12/11 01:08:26;;;;;;;12.35;6.07;;;;;;;;;;5045650;28;20933;-81
2022/12/11 01:11:03;;;;;;;13.48;6.20;;;;;;;;;;5039336;28;20422;-82
2022/12/11 01:13:31;;;;;;;13.50;6.07;;;;;;;;;;5075630;28;20913;-81
2022/12/11 01:16:07;;;;;;;12.98;6.28;;;;;;;;;;5050349;28;20409;-81
2022/12/11 01:18:35;;;;;;;13.27;6.20;;;;;;;;;;5065878;28;20423;-82
2022/12/11 01:21:09;;;;;;;13.23;6.07;;;;;;;;;;5038617;28;20427;-82
2022/12/11 01:23:42;;;;;;;12.63;6.00;;;;;;;;;;5065952;28;20422;-82
2022/12/11 01:26:15;;;;;;;12.25;5.95;;;;;;;;;;5035415;28;20419;-83
2022/12/11 01:28:49;;;;;;;14.48;6.97;;;;;;;;;;5069819;28;20437;-82
2022/12/11 01:31:23;;;;;;;15.80;7.60;;;;;;;;;;5049450;28;20451;-82
2022/12/11 01:33:56;;;;;;;16.63;7.20;;;;;;;;;;5051866;28;20421;-81
2022/12/11 01:36:29;;;;;;;15.05;7.53;;;;;;;;;;5047242;28;21138;-82
2022/12/11 01:38:57;;;;;;;16.25;7.82;;;;;;;;;;5073729;28;20413;-81
2022/12/11 01:41:25;;;;;;;16.03;8.00;;;;;;;;;;5050513;28;20448;-82
2022/12/11 01:43:56;;;;;;;15.75;7.75;;;;;;;;;;5032229;28;20418;-82
2022/12/11 01:46:26;;;;;;;16.00;7.78;;;;;;;;;;5033278;28;20426;-85
2022/12/11 01:48:54;;;;;;;14.50;7.28;;;;;;;;;;5040803;28;20444;-81
2022/12/11 01:51:22;;;;;;;14.20;7.30;;;;;;;;;;5048176;28;20454;-82
2022/12/11 01:53:51;;;;;;;15.35;7.22;;;;;;;;;;5046260;28;20436;-81
2022/12/11 01:56:19;;;;;;;16.17;7.95;;;;;;;;;;5042661;28;20424;-81
2022/12/11 01:58:53;;;;;;;15.57;7.50;;;;;;;;;;5051461;28;20422;-81
2022/12/11 02:01:24;;;;;;;15.63;7.65;;;;;;;;;;5051927;28;20421;-82
2022/12/11 02:03:54;;;;;;;15.48;7.78;;;;;;;;;;5041596;28;20428;-81
2022/12/11 02:06:33;;;;;;;15.63;7.65;;;;;;;;;;5049467;28;20417;-81
2022/12/11 02:09:02;;;;;;;16.33;8.30;;;;;;;;;;5046305;28;20423;-83
2022/12/11 02:11:34;;;;;;;16.83;8.18;;;;;;;;;;5037291;28;20768;-82
2022/12/11 02:14:05;;;;;;;15.00;7.80;;;;;;;;;;5049206;28;20458;-82
2022/12/11 02:16:39;;;;;;;15.88;8.20;;;;;;;;;;5044840;28;20906;-82
2022/12/11 02:19:17;;;;;;;14.93;7.72;;;;;;;;;;5043936;28;20418;-81
2022/12/11 02:21:52;;;;;;;15.43;7.60;;;;;;;;;;5041776;28;20430;-82
2022/12/11 02:24:45;;;;;;;14.55;7.30;;;;;;;;;;5049959;28;20429;-81
2022/12/11 02:27:21;;;;;;;16.52;7.55;;;;;;;;;;5048406;28;20468;-82
2022/12/11 02:29:52;;;;;;;17.27;7.78;;;;;;;;;;5036916;28;20918;-81
2022/12/11 02:32:22;;;;;;;17.02;7.80;;;;;;;;;;5043889;28;20758;-81
2022/12/11 02:34:54;;;;;;;16.50;7.63;;;;;;;;;;5049623;28;20430;-81
2022/12/11 02:37:24;;;;;;;16.85;7.90;;;;;;;;;;5042732;28;20427;-84
2022/12/11 02:39:53;;;;;;;15.82;7.43;;;;;;;;;;5041044;28;20403;-81
2022/12/11 02:42:21;;;;;;;15.55;7.88;;;;;;;;;;5037852;28;20433;-81
2022/12/11 02:44:51;;;;;;;16.17;7.70;;;;;;;;;;5058264;28;20434;-82
2022/12/11 02:47:20;;;;;;;16.33;8.02;;;;;;;;;;5047224;28;20445;-81
2022/12/11 02:49:49;;;;;;;16.83;8.23;;;;;;;;;;5040106;28;20448;-81
2022/12/11 02:52:19;;;;;;;17.38;8.00;;;;;;;;;;5048138;28;20404;-81
2022/12/11 02:54:47;;;;;;;16.05;7.75;;;;;;;;;;5053690;28;20755;-81
2022/12/11 02:57:23;;;;;;;14.98;7.55;;;;;;;;;;5048364;28;20410;-82
2022/12/11 02:59:53;;;;;;;14.23;7.00;;;;;;;;;;5077391;28;20421;-81
2022/12/11 03:02:25;;;;;;;17.35;7.75;;;;;;;;;;5031438;28;20458;-81
2022/12/11 03:04:59;;;;;;;17.98;8.43;;;;;;;;;;5066833;28;20805;-81
2022/12/11 03:07:33;;;;;;;16.00;7.93;;;;;;;;;;5035444;28;20448;-83
2022/12/11 03:10:01;;;;;;;18.13;8.57;;;;;;;;;;5042009;28;20422;-81
2022/12/11 03:12:31;;;;;;;17.52;8.68;;;;;;;;;;5041125;28;20432;-83
2022/12/11 03:15:01;;;;;;;18.02;8.80;;;;;;;;;;5035923;28;20430;-83
2022/12/11 03:17:38;;;;;;;17.50;8.50;;;;;;;;;;5030431;28;20426;-81
2022/12/11 03:20:09;;;;;;;16.45;8.20;;;;;;;;;;5063266;28;20768;-82
2022/12/11 03:22:40;;;;;;;16.08;8.25;;;;;;;;;;5036418;28;20440;-81
2022/12/11 03:25:16;;;;;;;17.42;8.00;;;;;;;;;;5057549;28;21248;-82
2022/12/11 03:27:54;;;;;;;17.75;8.35;;;;;;;;;;5035421;28;20430;-81
2022/12/11 03:30:24;;;;;;;16.38;8.52;;;;;;;;;;5042016;28;20413;-81
2022/12/11 03:32:53;;;;;;;18.38;8.98;;;;;;;;;;5046616;28;20425;-81
2022/12/11 03:35:28;;;;;;;18.98;8.80;;;;;;;;;;5044212;28;20434;-81
2022/12/11 03:38:03;;;;;;;18.67;8.40;;;;;;;;;;5049833;28;20918;-82
2022/12/11 03:40:33;;;;;;;19.13;8.52;;;;;;;;;;5038558;28;20427;-81
2022/12/11 03:43:00;;;;;;;17.83;8.70;;;;;;;;;;5039554;28;20419;-81
2022/12/11 03:45:35;;;;;;;19.07;8.43;;;;;;;;;;5063089;28;20476;-81
2022/12/11 03:48:08;;;;;;;18.67;8.57;;;;;;;;;;5048342;28;20943;-81
2022/12/11 03:50:37;;;;;;;18.80;8.75;;;;;;;;;;5044484;28;20428;-81
2022/12/11 03:53:05;;;;;;;18.65;8.90;;;;;;;;;;5047741;28;20428;-81
2022/12/11 03:55:33;;;;;;;17.25;8.18;;;;;;;;;;5047430;28;20432;-82
2022/12/11 03:58:01;;;;;;;16.63;8.20;;;;;;;;;;5036800;28;20418;-82
2022/12/11 04:00:29;;;;;;;17.88;8.43;;;;;;;;;;5043786;28;20409;-81
2022/12/11 04:03:12;;;;;;;18.02;8.50;;;;;;;;;;5041930;28;20414;-81
2022/12/11 04:05:40;;;;;;;16.75;8.27;;;;;;;;;;5041666;28;20790;-83
2022/12/11 04:08:08;;;;;;;17.33;8.25;;;;;;;;;;5038101;28;20418;-81
2022/12/11 04:10:41;;;;;;;18.60;8.90;;;;;;;;;;5034526;28;20427;-81
2022/12/11 04:13:09;;;;;;;19.00;8.45;;;;;;;;;;5031065;28;20899;-81
2022/12/11 04:15:36;;;;;;;18.35;8.10;;;;;;;;;;5040255;28;20420;-81
2022/12/11 04:26:32;;;;;;;17.58;8.25;;;;;;;;;;5057215;28;20814;-81
2022/12/11 04:29:05;;;;;;;21.30;9.52;;;;;;;;;;5045960;28;20426;-81
2022/12/11 04:31:38;;;;;;;18.50;8.25;;;;;;;;;;5030889;28;20426;-84
2022/12/11 04:34:07;;;;;;;20.25;8.95;;;;;;;;;;5040633;28;20427;-80
2022/12/11 04:36:40;;;;;;;18.65;8.50;;;;;;;;;;5078478;28;20421;-80
2022/12/11 04:39:07;;;;;;;20.20;9.95;;;;;;;;;;5072129;28;20417;-82
2022/12/11 04:41:40;;;;;;;21.63;9.33;;;;;;;;;;5074609;28;20461;-82
2022/12/11 04:44:13;;;;;;;19.85;8.98;;;;;;;;;;5042073;28;20426;-82
2022/12/11 04:46:46;;;;;;;19.20;9.13;;;;;;;;;;5047140;28;20429;-82
2022/12/11 04:49:15;;;;;;;18.90;8.88;;;;;;;;;;5048014;28;20430;-82
2022/12/11 04:51:43;;;;;;;19.23;8.65;;;;;;;;;;5034630;28;20924;-81
2022/12/11 04:54:16;;;;;;;20.30;8.88;;;;;;;;;;5052177;28;20427;-82
2022/12/11 04:56:43;;;;;;;19.30;9.07;;;;;;;;;;5049513;28;20438;-83
2022/12/11 04:59:16;;;;;;;19.17;8.93;;;;;;;;;;5032858;28;20423;-81
2022/12/11 05:01:44;;;;;;;22.10;9.47;;;;;;;;;;5038419;28;20426;-81
2022/12/11 05:04:12;;;;;;;20.00;9.27;;;;;;;;;;5049844;28;20407;-83
2022/12/11 05:06:41;;;;;;;22.42;9.75;;;;;;;;;;5043352;28;20430;-82
2022/12/11 05:09:10;;;;;;;21.00;9.33;;;;;;;;;;5049146;28;20430;-81
2022/12/11 05:11:43;;;;;;;19.33;9.52;;;;;;;;;;5049376;28;20835;-82
2022/12/11 05:14:11;;;;;;;19.33;8.60;;;;;;;;;;5052181;28;20421;-82
2022/12/11 05:16:44;;;;;;;19.73;9.25;;;;;;;;;;5044472;28;20783;-82
2022/12/11 05:19:11;;;;;;;21.23;9.02;;;;;;;;;;5065804;28;20906;-82
2022/12/11 05:21:46;;;;;;;22.30;9.43;;;;;;;;;;5036428;28;20484;-82
2022/12/11 05:24:19;;;;;;;20.77;8.90;;;;;;;;;;5037597;28;20891;-82
2022/12/11 05:26:46;;;;;;;20.55;9.43;;;;;;;;;;5082415;28;20436;-82
2022/12/11 05:29:19;;;;;;;19.10;8.83;;;;;;;;;;5043444;28;20476;-84
2022/12/11 05:31:52;;;;;;;19.77;9.15;;;;;;;;;;5047684;28;20913;-82
2022/12/11 05:34:25;;;;;;;23.80;9.48;;;;;;;;;;5051300;28;20421;-81
2022/12/11 05:36:59;;;;;;;20.52;8.90;;;;;;;;;;5041733;28;20904;-82
2022/12/11 05:39:27;;;;;;;21.88;9.32;;;;;;;;;;5041419;28;20417;-81
2022/12/11 05:41:59;;;;;;;20.08;9.40;;;;;;;;;;5042304;28;21025;-82
2022/12/11 05:44:32;;;;;;;20.92;9.45;;;;;;;;;;5033740;28;20426;-83
2022/12/11 05:47:00;;;;;;;21.20;9.30;;;;;;;;;;5043842;28;20428;-82
2022/12/11 05:49:33;;;;;;;20.73;9.77;;;;;;;;;;5050112;28;20429;-81
2022/12/11 05:52:02;;;;;;;19.52;9.02;;;;;;;;;;5071185;28;20414;-85
2022/12/11 05:54:30;;;;;;;21.15;9.25;;;;;;;;;;5035111;28;20867;-83
2022/12/11 05:57:02;;;;;;;21.43;9.20;;;;;;;;;;5048517;28;20478;-81
2022/12/11 05:59:35;;;;;;;18.20;8.50;;;;;;;;;;5045540;28;20425;-81
2022/12/11 06:02:08;;;;;;;18.95;8.35;;;;;;;;;;5040845;28;20437;-82
2022/12/11 06:04:41;;;;;;;20.90;9.13;;;;;;;;;;5044051;28;20431;-81
2022/12/11 06:07:15;;;;;;;19.25;8.23;;;;;;;;;;5038541;28;20430;-85
2022/12/11 06:09:43;;;;;;;18.02;8.15;;;;;;;;;;5043008;28;20424;-82
2022/12/11 06:12:11;;;;;;;19.75;8.23;;;;;;;;;;5036827;28;20434;-82
2022/12/11 06:14:43;;;;;;;17.70;8.35;;;;;;;;;;5040236;28;20795;-81
2022/12/11 06:17:11;;;;;;;18.77;8.63;;;;;;;;;;5049389;28;20430;-81
2022/12/11 06:19:44;;;;;;;17.90;8.52;;;;;;;;;;5047366;28;20417;-82
2022/12/11 06:22:12;;;;;;;22.55;9.85;;;;;;;;;;5072694;28;20946;-81
2022/12/11 06:24:46;;;;;;;22.07;8.83;;;;;;;;;;5040356;28;20732;-82
2022/12/11 06:27:19;;;;;;;20.00;8.97;;;;;;;;;;5040728;28;20435;-81
2022/12/11 06:29:52;;;;;;;21.08;8.90;;;;;;;;;;5046069;28;20421;-80
2022/12/11 06:32:20;;;;;;;22.20;9.63;;;;;;;;;;5057811;28;20909;-81
2022/12/11 06:34:53;;;;;;;22.05;9.52;;;;;;;;;;5047164;28;20426;-81
2022/12/11 06:37:21;;;;;;;20.45;9.35;;;;;;;;;;5051123;28;20424;-81
2022/12/11 06:39:55;;;;;;;21.75;9.52;;;;;;;;;;5048692;28;20881;-81
2022/12/11 06:42:29;;;;;;;22.20;9.40;;;;;;;;;;5037121;28;20433;-81
2022/12/11 06:45:02;;;;;;;21.38;9.35;;;;;;;;;;5043551;28;20436;-81
2022/12/11 06:47:31;;;;;;;19.98;8.85;;;;;;;;;;5041901;28;20432;-81
2022/12/11 06:49:59;;;;;;;22.15;9.68;;;;;;;;;;5038890;28;20435;-82
2022/12/11 06:52:31;;;;;;;19.83;9.48;;;;;;;;;;5078724;28;20421;-81
2022/12/11 06:55:06;;;;;;;23.58;9.45;;;;;;;;;;5048621;28;20452;-82
2022/12/11 06:57:34;;;;;;;22.23;9.60;;;;;;;;;;5047805;28;20426;-81
2022/12/11 07:00:02;;;;;;;21.92;9.45;;;;;;;;;;5077274;28;20425;-80
2022/12/11 07:02:35;;;;;;;21.80;9.60;;;;;;;;;;5048651;28;21030;-82
2022/12/11 07:05:07;;;;;;;23.40;9.63;;;;;;;;;;5044403;28;20462;-81
2022/12/11 07:07:40;;;;;;;21.45;9.80;;;;;;;;;;5046674;28;20417;-81
2022/12/11 07:10:10;;;;;;;19.92;9.02;;;;;;;;;;5046181;28;20430;-81
2022/12/11 07:12:38;;;;;;;23.13;9.70;;;;;;;;;;5044675;28;20458;-81
2022/12/11 07:15:06;;;;;;;21.80;9.82;;;;;;;;;;5040443;28;20464;-81
2022/12/11 07:17:39;;;;;;;21.52;9.80;;;;;;;;;;5055133;28;20503;-81
2022/12/11 07:20:12;;;;;;;21.40;9.40;;;;;;;;;;5039313;28;20581;-83
2022/12/11 07:22:40;;;;;;;21.77;9.48;;;;;;;;;;5048694;28;20477;-81
2022/12/11 07:25:14;;;;;;;22.80;10.10;;;;;;;;;;5044463;28;20467;-82
2022/12/11 07:27:47;;;;;;;22.17;9.95;;;;;;;;;;5044082;28;20480;-81
2022/12/11 07:30:20;;;;;;;21.52;9.73;;;;;;;;;;5042348;28;20496;-81
2022/12/11 07:32:53;;;;;;;22.05;9.93;;;;;;;;;;5041517;28;20424;-83
2022/12/11 07:35:26;;;;;;;24.77;11.63;;;;;;;;;;5059032;28;20863;-81
2022/12/11 07:37:59;;;;;;;25.15;11.52;;;;;;;;;;5035819;28;20422;-81
2022/12/11 07:40:34;;;;;;;24.90;11.27;;;;;;;;;;5044620;28;20929;-81
2022/12/11 07:43:02;;;;;;;23.88;11.05;;;;;;;;;;5042976;28;20439;-82
2022/12/11 07:45:35;;;;;;;21.38;10.07;;;;;;;;;;5043770;28;20841;-81
2022/12/11 07:48:08;;;;;;;22.40;9.80;;;;;;;;;;5040050;28;20429;-81
2022/12/11 07:50:41;;;;;;;22.52;10.38;;;;;;;;;;5045526;28;20914;-81
2022/12/11 07:53:08;;;;;;;22.30;9.63;;;;;;;;;;5036799;28;21424;-81
2022/12/11 07:55:43;;;;;;;22.07;10.10;;;;;;;;;;5044971;28;20441;-81
2022/12/11 07:58:10;;;;;;;22.73;10.55;;;;;;;;;;5057702;28;20456;-82
2022/12/11 08:00:44;;;;;;;22.40;9.95;;;;;;;;;;5044892;28;20920;-81
2022/12/11 08:03:16;;;;;;;21.85;10.15;;;;;;;;;;5047720;28;20461;-82
2022/12/11 08:05:49;;;;;;;20.63;9.88;;;;;;;;;;5058599;28;20472;-81
2022/12/11 08:08:22;;;;;;;23.90;10.70;;;;;;;;;;5041780;28;20425;-84
2022/12/11 08:11:00;;;;;;;21.15;9.98;;;;;;;;;;5058058;28;20468;-82
2022/12/11 08:13:28;;;;;;;19.67;9.10;;;;;;;;;;5061712;28;20467;-81
2022/12/11 08:16:03;;;;;;;23.25;10.27;;;;;;;;;;5057466;28;20945;-81
2022/12/11 08:18:36;;;;;;;22.45;9.45;;;;;;;;;;5045226;28;20489;-81
2022/12/11 08:21:05;;;;;;;22.58;10.18;;;;;;;;;;5042677;28;20423;-82
2022/12/11 08:23:32;;;;;;;22.00;10.05;;;;;;;;;;5070825;28;20480;-82
2022/12/11 08:26:08;;;;;;;22.63;10.18;;;;;;;;;;5054498;28;20456;-83
2022/12/11 08:28:41;;;;;;;23.83;11.15;;;;;;;;;;5043068;28;20466;-81
2022/12/11 08:31:09;;;;;;;21.67;9.65;;;;;;;;;;5041347;28;20469;-83
2022/12/11 08:33:42;;;;;;;23.88;10.10;;;;;;;;;;5046330;28;20448;-81
2022/12/11 08:36:11;;;;;;;23.60;10.63;;;;;;;;;;5045394;28;20477;-81
2022/12/11 08:38:45;;;;;;;23.58;10.10;;;;;;;;;;5045575;28;20481;-81
2022/12/11 08:41:15;;;;;;;23.95;10.82;;;;;;;;;;5073209;28;20471;-81
2022/12/11 08:43:43;;;;;;;23.17;10.37;;;;;;;;;;5076539;28;20566;-80
2022/12/11 08:46:16;;;;;;;24.08;11.15;;;;;;;;;;5042468;28;20434;-81
2022/12/11 08:48:49;;;;;;;26.00;11.32;;;;;;;;;;5046070;28;20430;-80
2022/12/11 08:51:18;;;;;;;25.52;10.93;;;;;;;;;;5044376;28;21000;-83
2022/12/11 08:53:46;;;;;;;21.55;10.40;;;;;;;;;;5044770;28;20453;-82
2022/12/11 08:56:22;;;;;;;26.88;12.60;;;;;;;;;;5043461;28;20490;-81
2022/12/11 08:58:50;;;;;;;33.83;16.33;;;;;;;;;;5042214;28;20758;-81
2022/12/11 09:01:20;;;;;;;28.52;12.75;;;;;;;;;;5043452;28;20797;-81
2022/12/11 09:03:53;;;;;;;23.23;11.32;;;;;;;;;;5037524;28;20422;-82
2022/12/11 09:06:27;;;;;;;26.05;12.07;;;;;;;;;;5040473;28;20436;-87
2022/12/11 09:08:56;;;;;;;26.25;12.07;;;;;;;;;;5066326;28;20815;-80
2022/12/11 09:11:31;;;;;;;27.65;13.20;;;;;;;;;;5041802;28;20500;-83
2022/12/11 09:14:05;;;;;;;32.25;13.65;;;;;;;;;;5035451;28;20797;-84
2022/12/11 09:16:39;;;;;;;25.60;11.40;;;;;;;;;;5046386;28;20429;-81
2022/12/11 09:19:08;;;;;;;22.75;10.38;;;;;;;;;;5045248;28;20430;-80
2022/12/11 09:21:36;;;;;;;23.30;10.18;;;;;;;;;;5038578;28;20427;-81
2022/12/11 09:24:09;;;;;;;21.67;10.18;;;;;;;;;;5041618;28;20429;-81
2022/12/11 09:26:39;;;;;;;22.10;10.23;;;;;;;;;;5042537;28;20431;-82
2022/12/11 09:29:11;;;;;;;22.98;11.00;;;;;;;;;;5044366;28;20431;-82
2022/12/11 09:31:39;;;;;;;25.95;11.63;;;;;;;;;;5037653;28;20429;-81
2022/12/11 09:34:10;;;;;;;27.30;12.52;;;;;;;;;;5039531;28;20890;-81
2022/12/11 09:36:38;;;;;;;26.05;12.68;;;;;;;;;;5039981;28;20423;-81
2022/12/11 09:39:07;;;;;;;30.67;14.48;;;;;;;;;;5039863;28;20429;-81
2022/12/11 09:41:43;;;;;;;27.38;12.25;;;;;;;;;;5049651;28;20429;-82
2022/12/11 09:44:20;;;;;;;25.27;11.57;;;;;;;;;;5044601;28;20421;-81
2022/12/11 09:46:53;;;;;;;23.48;11.13;;;;;;;;;;5039019;28;20906;-81
2022/12/11 09:49:26;;;;;;;28.88;13.85;;;;;;;;;;5048600;28;20430;-82
2022/12/11 09:51:59;;;;;;;27.77;14.32;;;;;;;;;;5037866;28;20430;-82
2022/12/11 09:54:32;;;;;;;28.25;14.45;;;;;;;;;;5047134;28;20428;-81
2022/12/11 09:57:09;;;;;;;30.00;14.98;;;;;;;;;;5048156;28;20433;-82
2022/12/11 09:59:47;;;;;;;25.00;12.52;;;;;;;;;;5059558;28;20442;-81
2022/12/11 10:02:24;;;;;;;24.40;12.48;;;;;;;;;;5040172;28;20428;-81
2022/12/11 10:05:00;;;;;;;25.33;12.75;;;;;;;;;;5041367;28;20427;-82
2022/12/11 10:07:37;;;;;;;29.13;14.45;;;;;;;;;;5041370;28;20437;-82
2022/12/11 10:10:17;;;;;;;26.63;12.85;;;;;;;;;;5045425;28;20418;-82
2022/12/11 10:12:56;;;;;;;23.77;12.10;;;;;;;;;;5042310;28;20432;-82
2022/12/11 10:15:34;;;;;;;23.60;11.55;;;;;;;;;;5044199;28;20420;-81
2022/12/11 10:18:11;;;;;;;24.10;12.05;;;;;;;;;;5037848;28;20442;-81
2022/12/11 10:20:44;;;;;;;21.17;10.77;;;;;;;;;;5053701;28;20431;-81
2022/12/11 10:23:16;;;;;;;24.42;11.68;;;;;;;;;;5042047;28;20456;-81
2022/12/11 10:25:51;;;;;;;24.17;11.38;;;;;;;;;;5039701;28;20421;-81
2022/12/11 10:28:27;;;;;;;20.42;10.45;;;;;;;;;;5039361;28;20452;-82
2022/12/11 10:30:58;;;;;;;23.77;11.63;;;;;;;;;;5039498;28;20454;-80
2022/12/11 10:33:34;;;;;;;23.65;11.18;;;;;;;;;;5071064;28;20912;-81
2022/12/11 10:36:07;;;;;;;23.05;11.27;;;;;;;;;;5042342;28;20913;-80
2022/12/11 10:38:38;;;;;;;24.15;11.05;;;;;;;;;;5040916;28;20435;-82
2022/12/11 10:41:12;;;;;;;19.85;10.35;;;;;;;;;;5040244;28;20423;-81
2022/12/11 10:43:48;;;;;;;20.65;10.30;;;;;;;;;;5043339;28;20816;-83
2022/12/11 10:46:21;;;;;;;22.05;10.80;;;;;;;;;;5047250;28;20437;-82
2022/12/11 10:48:55;;;;;;;20.45;10.35;;;;;;;;;;5038965;28;20427;-81
2022/12/11 10:51:25;;;;;;;21.75;9.90;;;;;;;;;;5039395;28;20422;-81
2022/12/11 10:54:01;;;;;;;19.92;10.27;;;;;;;;;;5040413;28;20431;-83
2022/12/11 10:56:35;;;;;;;19.80;9.88;;;;;;;;;;5039077;28;20502;-81
2022/12/11 10:59:16;;;;;;;21.38;10.55;;;;;;;;;;5038697;28;20483;-82
2022/12/11 11:01:46;;;;;;;21.23;10.57;;;;;;;;;;5039487;28;20935;-80
2022/12/11 11:04:21;;;;;;;20.50;10.27;;;;;;;;;;5042379;28;20440;-82
2022/12/11 11:07:01;;;;;;;25.87;11.30;;;;;;;;;;5043147;28;21016;-81
2022/12/11 11:09:35;;;;;;;22.73;11.95;;;;;;;;;;5044397;28;20915;-81
2022/12/11 11:12:03;;;;;;;21.58;11.50;;;;;;;;;;5059833;28;20449;-82
2022/12/11 11:14:37;;;;;;;27.58;10.27;;;;;;;;;;5043388;28;20428;-81
2022/12/11 11:17:05;;;;;;;21.88;10.30;;;;;;;;;;5046087;28;20944;-81
2022/12/11 11:19:38;;;;;;;24.30;11.50;;;;;;;;;;5044205;28;20425;-81
2022/12/11 11:22:13;;;;;;;23.05;10.73;;;;;;;;;;5046289;28;20426;-81
2022/12/11 11:24:43;;;;;;;20.88;10.30;;;;;;;;;;5037091;28;20436;-82
2022/12/11 11:27:18;;;;;;;22.17;10.60;;;;;;;;;;5043864;28;20454;-81
2022/12/11 11:29:47;;;;;;;22.48;11.23;;;;;;;;;;5069765;28;20812;-82
2022/12/11 11:32:17;;;;;;;22.70;10.93;;;;;;;;;;5040753;28;20500;-82
2022/12/11 11:34:45;;;;;;;23.58;11.23;;;;;;;;;;5042869;28;20908;-81
2022/12/11 11:37:23;;;;;;;22.73;11.90;;;;;;;;;;5041949;28;20444;-82
2022/12/11 11:39:58;;;;;;;24.55;12.23;;;;;;;;;;5042349;28;20443;-81
2022/12/11 11:42:30;;;;;;;25.85;12.10;;;;;;;;;;5046422;28;20426;-80
2022/12/11 11:45:05;;;;;;;23.60;12.02;;;;;;;;;;5042322;28;20435;-82
2022/12/11 11:47:41;;;;;;;23.02;12.23;;;;;;;;;;5075295;28;20434;-82
2022/12/11 11:50:15;;;;;;;25.23;12.60;;;;;;;;;;5037146;28;20425;-81
2022/12/11 11:52:47;;;;;;;25.88;12.68;;;;;;;;;;5045218;28;20784;-81
2022/12/11 11:55:16;;;;;;;24.80;12.18;;;;;;;;;;5045554;28;20432;-82
2022/12/11 11:57:53;;;;;;;25.35;12.50;;;;;;;;;;5039857;28;20423;-83
2022/12/11 12:00:27;;;;;;;24.10;12.07;;;;;;;;;;5069440;28;20431;-83
2022/12/11 12:03:02;;;;;;;24.15;12.20;;;;;;;;;;5041962;28;20419;-84
2022/12/11 12:05:39;;;;;;;27.92;13.30;;;;;;;;;;5040230;28;20429;-84
2022/12/11 12:08:14;;;;;;;26.40;12.63;;;;;;;;;;5035010;28;20423;-84
2022/12/11 12:10:50;;;;;;;26.15;13.13;;;;;;;;;;5047125;28;20893;-84
2022/12/11 12:13:27;;;;;;;24.42;11.90;;;;;;;;;;5050269;28;20439;-83
2022/12/11 12:16:02;;;;;;;27.27;13.20;;;;;;;;;;5041631;28;20434;-84
2022/12/11 12:18:35;;;;;;;29.75;13.43;;;;;;;;;;5046624;28;20433;-84
2022/12/11 12:21:12;;;;;;;25.63;12.90;;;;;;;;;;5070179;28;20428;-83
2022/12/11 12:23:52;;;;;;;23.92;11.85;;;;;;;;;;5041092;28;20913;-83
2022/12/11 12:26:26;;;;;;;26.33;12.32;;;;;;;;;;5036191;28;20434;-84
2022/12/11 12:29:01;;;;;;;25.38;12.85;;;;;;;;;;5044846;28;20764;-85
2022/12/11 12:31:37;;;;;;;24.63;12.55;;;;;;;;;;5040485;28;20774;-85
2022/12/11 12:34:10;;;;;;;25.07;12.27;;;;;;;;;;5044822;28;20421;-84
2022/12/11 12:36:42;;;;;;;25.27;12.52;;;;;;;;;;5055975;28;20427;-85
2022/12/11 12:39:17;;;;;;;32.92;15.13;;;;;;;;;;5037539;28;20433;-84
2022/12/11 12:41:54;;;;;;;27.13;13.40;;;;;;;;;;5040739;28;20786;-85
2022/12/11 12:44:24;;;;;;;29.63;13.73;;;;;;;;;;5050206;28;20425;-85
2022/12/11 12:46:56;;;;;;;30.70;13.73;;;;;;;;;;5040747;28;20495;-85
2022/12/11 12:49:35;;;;;;;29.45;14.60;;;;;;;;;;5071174;28;20421;-85
2022/12/11 12:52:04;;;;;;;31.17;15.00;;;;;;;;;;5040994;28;20425;-83
2022/12/11 12:54:33;;;;;;;36.77;21.20;;;;;;;;;;5041409;28;20425;-84
2022/12/11 12:57:03;;;;;;;35.10;19.00;;;;;;;;;;5046493;28;20426;-84
2022/12/11 12:59:30;;;;;;;34.75;17.73;;;;;;;;;;5045684;28;20437;-83
2022/12/11 13:02:05;;;;;;;29.95;14.82;;;;;;;;;;5048538;28;20426;-83
2022/12/11 13:04:38;;;;;;;27.38;12.77;;;;;;;;;;5075551;28;20429;-84
2022/12/11 13:07:13;;;;;;;26.85;12.35;;;;;;;;;;5050848;28;20446;-85
2022/12/11 13:09:55;;;;;;;26.77;12.63;;;;;;;;;;5046585;28;20794;-84
2022/12/11 13:12:30;;;;;;;26.02;12.23;;;;;;;;;;5044507;28;20424;-84
2022/12/11 13:15:03;;;;;;;21.97;10.90;;;;;;;;;;5048358;28;20413;-85
2022/12/11 13:17:38;;;;;;;22.38;11.45;;;;;;;;;;5052097;28;20413;-84
2022/12/11 13:20:11;;;;;;;25.33;11.60;;;;;;;;;;5041897;28;20436;-85
2022/12/11 13:22:48;;;;;;;22.60;11.10;;;;;;;;;;5042722;28;20437;-84
2022/12/11 13:25:19;;;;;;;26.05;12.00;;;;;;;;;;5052990;28;20424;-84
2022/12/11 13:27:48;;;;;;;24.43;11.20;;;;;;;;;;5044613;28;20481;-84
2022/12/11 13:30:24;;;;;;;23.60;11.18;;;;;;;;;;5044599;28;20763;-85
2022/12/11 13:33:01;;;;;;;25.38;11.68;;;;;;;;;;5044314;28;21123;-85
2022/12/11 13:35:29;;;;;;;23.60;11.60;;;;;;;;;;5042713;28;20793;-84
2022/12/11 13:38:05;;;;;;;23.48;11.55;;;;;;;;;;5050010;28;20806;-85
2022/12/11 13:40:41;;;;;;;24.00;12.07;;;;;;;;;;5061337;28;20802;-85
2022/12/11 13:43:17;;;;;;;24.15;12.05;;;;;;;;;;5045907;28;20417;-83
2022/12/11 13:45:46;;;;;;;23.77;11.05;;;;;;;;;;5046741;28;20448;-85
2022/12/11 13:48:22;;;;;;;22.83;11.07;;;;;;;;;;5047618;28;20425;-85
2022/12/11 13:50:51;;;;;;;23.63;11.65;;;;;;;;;;5046110;28;20432;-86
2022/12/11 13:53:20;;;;;;;24.52;11.80;;;;;;;;;;5045866;28;20428;-85
2022/12/11 13:55:55;;;;;;;25.17;11.68;;;;;;;;;;5043852;28;20425;-86
2022/12/11 13:58:29;;;;;;;27.65;11.88;;;;;;;;;;5047364;28;20420;-87
2022/12/11 14:01:06;;;;;;;24.42;11.52;;;;;;;;;;5042627;28;20432;-85
2022/12/11 14:03:35;;;;;;;24.75;11.68;;;;;;;;;;5042100;28;20405;-87
2022/12/11 14:06:03;;;;;;;22.08;11.23;;;;;;;;;;5044268;28;20439;-89
2022/12/11 14:08:37;;;;;;;24.20;11.52;;;;;;;;;;5057394;28;20436;-86
2022/12/11 14:11:16;;;;;;;22.80;11.57;;;;;;;;;;5050406;28;20436;-87
2022/12/11 14:13:49;;;;;;;24.23;11.55;;;;;;;;;;5046957;28;20428;-85
2022/12/11 14:16:20;;;;;;;30.08;11.93;;;;;;;;;;5045390;28;20463;-84
2022/12/11 14:18:55;;;;;;;23.63;11.48;;;;;;;;;;5053714;28;20427;-83
2022/12/11 14:21:27;;;;;;;24.90;12.43;;;;;;;;;;5041144;28;20427;-84
2022/12/11 14:24:02;;;;;;;26.35;12.50;;;;;;;;;;5047464;28;20436;-85
2022/12/11 14:26:30;;;;;;;26.77;12.35;;;;;;;;;;5042639;28;20429;-89
2022/12/11 14:28:58;;;;;;;25.42;12.18;;;;;;;;;;5031427;28;20448;-86
2022/12/11 14:31:28;;;;;;;24.75;12.38;;;;;;;;;;5040991;28;20425;-89
2022/12/11 14:34:00;;;;;;;24.73;12.63;;;;;;;;;;5026836;28;20437;-89
2022/12/11 14:36:34;;;;;;;26.08;13.15;;;;;;;;;;5033675;28;20418;-86
2022/12/11 14:39:04;;;;;;;25.33;12.55;;;;;;;;;;5022364;28;20441;-88
2022/12/11 14:41:37;;;;;;;26.73;12.95;;;;;;;;;;5035269;28;20936;-88
2022/12/11 14:44:06;;;;;;;27.08;13.60;;;;;;;;;;5019942;28;20775;-88
2022/12/11 14:46:36;;;;;;;26.63;12.98;;;;;;;;;;5025193;28;20784;-88
2022/12/11 14:49:08;;;;;;;28.48;13.70;;;;;;;;;;5021638;28;21281;-88
2022/12/11 14:51:42;;;;;;;27.97;14.13;;;;;;;;;;5023606;28;20437;-87
2022/12/11 14:54:15;;;;;;;28.20;13.63;;;;;;;;;;5024641;28;20429;-87
2022/12/11 14:56:48;;;;;;;29.48;13.48;;;;;;;;;;5023532;28;20633;-87
2022/12/11 14:59:22;;;;;;;25.70;11.93;;;;;;;;;;5023045;28;20445;-87